Flight Track Log - Related Links

Times and Time Zones

All times are in EDT time to prevent confusion due to time zone crossing. See the CJT620 flight status page for this flight to view local times or setup timezone preferences in your user account.

Time Position Orientation Groundspeed Altitude Reporting Facility
EDT Latitude Longitude Course Direction KTS MPH feet Rate Location/Type
Fri 02:42:48 AM 46.1000 -64.7333 270° West 160 184 3,300  Level Moncton Center
Fri 02:43:48 AM 46.0333 -64.7333 180° South 250 288 6,100 3,250 Climbing Moncton Center
Fri 02:44:48 AM 45.9667 -64.6833 152° Southeast 290 334 9,800 2,800 Climbing Moncton Center
Fri 02:45:48 AM 45.8833 -64.5833 140° Southeast 350 403 11,700 2,450 Climbing Moncton Center
Fri 02:46:48 AM 45.7833 -64.5167 155° Southeast 400 460 14,700 1,650 Climbing Moncton Center
Fri 02:47:48 AM 45.6833 -64.4000 141° Southeast 440 506 15,000 150 Climbing Moncton Center
Fri 02:48:48 AM 45.5667 -64.2833 145° Southeast 450 518 15,000 -200 Level Moncton Center
Fri 02:49:48 AM 45.5000 -64.1667 129° Southeast 450 518 14,600 -1,350 Descending Moncton Center
Fri 02:50:48 AM 45.4167 -64.0167 128° Southeast 450 518 12,300 -2,300 Descending Moncton Center
Fri 02:51:48 AM 45.3500 -63.9000 129° Southeast 410 472 10,000 -1,150 Descending Moncton Center
Fri 02:52:48 AM 45.3000 -63.7833 121° Southeast 350 403 10,000 -500 Level Moncton Center
Fri 02:53:48 AM 45.2500 -63.6833 125° Southeast 300 345 9,000 -1,050 Descending Moncton Center
Fri 02:54:48 AM 45.2000 -63.5833 125° Southeast 280 322 7,900 -1,200 Descending Moncton Center
Fri 02:55:48 AM 45.1500 -63.5167 137° Southeast 270 311 6,600 -1,150 Descending Moncton Center
Fri 02:56:48 AM 45.1167 -63.4500 125° Southeast 260 299 5,600 -1,000 Descending Moncton Center
Fri 02:57:48 AM 45.0667 -63.3500 125° Southeast 250 288 4,600 -950 Descending Moncton Center
Fri 02:58:48 AM 45.0167 -63.3167 155° Southeast 220 253 3,700 -550 Descending Moncton Center
Fri 02:59:48 AM 44.9833 -63.3500 215° Southwest 190 219 3,500 -550 Descending Moncton Center
Fri 03:00:48 AM 44.9500 -63.4000 227° Southwest 170 196 2,600 -900 Descending Moncton Center
Fri 03:01:48 AM 44.9167 -63.4500 227° Southwest 160 184 1,700 -800 Descending Moncton Center
Fri 03:02:48 AM 44.8833 -63.4833 215° Southwest 140 161 1,000 -700 Descending Moncton Center

Login

Don't have an account? Register now (free) for customized features, flight alerts, and more!